This is the latest recevied weather packets stored in our database for station/object KK7MLS-13. If no packets are shown the sender has not sent any weather packets the latest 10 day(s).
| Time | Temp. | Humidity | Pressure | Rain* | Wind** | Luminosity | Snow |
|---|---|---|---|---|---|---|---|
| 1777577780 | 23.33° C | 42% | 1017.9 hPa | 0 mm | - | 526 W/m² | - |
| 1777577174 | 23.33° C | 39% | 1017.9 hPa | 0 mm | - | 290 W/m² | - |
| 1777576870 | 23.33° C | 43% | 1017.9 hPa | 0 mm | - | 448 W/m² | - |
| 1777576568 | 23.89° C | 38% | 1018.1 hPa | 0 mm | - | 443 W/m² | - |
| 1777575962 | 23.33° C | 40% | 1017.9 hPa | 0 mm | - | 487 W/m² | - |
| 1777574746 | 22.78° C | 43% | 1018.2 hPa | 0 mm | - | 557 W/m² | - |
| 1777574139 | 21.67° C | 44% | 1018.2 hPa | 0 mm | - | 557 W/m² | - |
| 1777573834 | 21.67° C | 44% | 1018.3 hPa | 0 mm | - | 482 W/m² | - |
| 1777573529 | 22.22° C | 44% | 1018.3 hPa | 0 mm | - | 523 W/m² | - |
| 1777573226 | 22.22° C | 44% | 1018.3 hPa | 0 mm | - | 471 W/m² | - |
| 1777572618 | 20.56° C | 47% | 1018.4 hPa | 0 mm | - | 582 W/m² | - |
| 1777572313 | 20.56° C | 47% | 1018.4 hPa | 0 mm | - | 539 W/m² | - |
| 1777571708 | 20.56° C | 49% | 1018.6 hPa | 0 mm | - | 518 W/m² | - |
| 1777569279 | 18.89° C | 51% | 1018.7 hPa | 0 mm | - | 322 W/m² | - |
| 1777568976 | 18.33° C | 52% | 1018.8 hPa | 0 mm | - | 347 W/m² | - |
| 1777568672 | 18.33° C | 50% | 1018.8 hPa | 0 mm | - | 358 W/m² | - |
| 1777568370 | 17.78° C | 52% | 1019 hPa | 0 mm | - | 321 W/m² | - |
| 1777568067 | 18.33° C | 52% | 1018.9 hPa | 0 mm | - | 318 W/m² | - |
| 1777567763 | 18.33° C | 52% | 1019.1 hPa | 0 mm | - | 278 W/m² | - |
| 1777566250 | 18.89° C | 50% | 1018.9 hPa | 0 mm | - | 406 W/m² | - |
| 1777565339 | 17.78° C | 51% | 1019.3 hPa | 0 mm | - | 371 W/m² | - |
| 1777565035 | 17.22° C | 53% | 1019.4 hPa | 0 mm | - | 304 W/m² | - |
| 1777564731 | 17.22° C | 52% | 1019.3 hPa | 0 mm | - | 304 W/m² | - |
| 1777563215 | 15.56° C | 59% | 1019.2 hPa | 0 mm | - | 179 W/m² | - |
| 1777562912 | 16.11° C | 60% | 1019.3 hPa | 0 mm | - | 231 W/m² | - |
* Rain latest hour (hover to see other rain measurements)
** Current wind speed in m/s (hover to see current wind gust speed)